createdAt,value
2022-11-10T00:00:16.683Z,15.17
2022-11-10T00:02:50.914Z,15.21
2022-11-10T00:05:23.751Z,15.20
2022-11-10T00:08:28.146Z,15.24
2022-11-10T00:11:06.533Z,15.26
2022-11-10T00:14:00.987Z,15.26
2022-11-10T00:16:51.676Z,15.27
2022-11-10T00:19:25.877Z,15.30
2022-11-10T00:21:59.399Z,15.30
2022-11-10T00:24:32.222Z,15.31
2022-11-10T00:27:05.410Z,15.31
2022-11-10T00:29:38.244Z,15.33
2022-11-10T00:32:11.777Z,15.32
2022-11-10T00:34:46.019Z,15.34
2022-11-10T00:37:19.256Z,15.36
2022-11-10T00:39:52.376Z,15.34
2022-11-10T00:42:25.576Z,15.35
2022-11-10T00:44:58.432Z,15.34
2022-11-10T00:47:31.304Z,15.34
2022-11-10T00:50:06.565Z,15.36
2022-11-10T00:52:39.408Z,15.37
2022-11-10T00:55:12.216Z,15.37
2022-11-10T00:57:45.026Z,15.38
2022-11-10T01:00:18.494Z,15.37
2022-11-10T01:02:51.328Z,15.39
2022-11-10T01:05:25.804Z,15.42
2022-11-10T01:07:59.574Z,15.40
2022-11-10T01:10:32.595Z,15.42
2022-11-10T01:13:05.631Z,15.42
2022-11-10T01:15:40.899Z,15.42
2022-11-10T01:18:15.467Z,15.43
2022-11-10T01:20:52.953Z,15.45
2022-11-10T01:23:29.035Z,15.42
2022-11-10T01:26:03.176Z,15.44
2022-11-10T01:28:37.317Z,15.43
2022-11-10T01:31:12.367Z,15.44
2022-11-10T01:33:45.667Z,15.42
2022-11-10T01:36:20.020Z,15.42
2022-11-10T01:38:52.850Z,15.41
2022-11-10T01:41:25.738Z,15.42
2022-11-10T01:44:14.567Z,15.44
2022-11-10T01:46:47.410Z,15.40
2022-11-10T01:49:25.762Z,15.41
2022-11-10T01:52:03.076Z,15.39
2022-11-10T01:54:40.118Z,15.37
2022-11-10T01:57:14.902Z,15.35
2022-11-10T01:59:50.189Z,15.33
2022-11-10T02:02:28.251Z,15.32
2022-11-10T02:05:04.357Z,15.30
2022-11-10T02:07:39.942Z,15.28
2022-11-10T02:10:16.208Z,15.27
2022-11-10T02:12:50.211Z,15.25
2022-11-10T02:15:23.416Z,15.23
2022-11-10T02:17:56.419Z,15.22
2022-11-10T02:20:29.294Z,15.21
2022-11-10T02:23:15.036Z,15.21
2022-11-10T02:25:47.939Z,15.16
2022-11-10T02:28:20.747Z,15.13
2022-11-10T02:30:53.896Z,15.13
2022-11-10T02:33:26.671Z,15.14
2022-11-10T02:35:59.555Z,15.14
2022-11-10T02:38:33.950Z,15.17
2022-11-10T02:41:06.965Z,15.19
2022-11-10T02:43:40.353Z,15.21
2022-11-10T02:46:13.583Z,15.23
2022-11-10T02:48:46.483Z,15.24
2022-11-10T02:51:19.560Z,15.26
2022-11-10T02:53:53.927Z,15.29
2022-11-10T02:56:26.746Z,15.29
2022-11-10T02:58:59.604Z,15.30
2022-11-10T03:01:32.856Z,15.33
2022-11-10T03:04:06.897Z,15.34
2022-11-10T03:06:39.716Z,15.34
2022-11-10T03:09:14.241Z,15.36
2022-11-10T03:11:47.019Z,15.35
2022-11-10T03:14:19.836Z,15.34
2022-11-10T03:16:52.897Z,15.32
2022-11-10T03:19:25.645Z,15.28
2022-11-10T03:21:58.612Z,15.24
2022-11-10T03:24:32.871Z,15.17
2022-11-10T03:27:05.730Z,15.10
2022-11-10T03:29:38.513Z,15.03
2022-11-10T03:32:11.321Z,14.96
2022-11-10T03:34:44.120Z,14.89
2022-11-10T03:37:17.003Z,14.81
2022-11-10T03:39:51.243Z,14.75
2022-11-10T03:42:24.170Z,14.68
2022-11-10T03:44:56.998Z,14.64
2022-11-10T03:47:29.927Z,14.57
2022-11-10T03:50:02.776Z,14.55
2022-11-10T03:52:35.704Z,14.54
2022-11-10T03:55:11.855Z,14.55
2022-11-10T03:57:44.802Z,14.54
2022-11-10T04:00:18.284Z,14.53
2022-11-10T04:02:51.103Z,14.54
2022-11-10T04:05:41.340Z,14.55
2022-11-10T04:08:34.766Z,14.56
2022-11-10T04:11:09.015Z,14.59
2022-11-10T04:13:59.281Z,14.58
2022-11-10T04:16:32.093Z,14.59
2022-11-10T04:19:05.008Z,14.60
2022-11-10T04:21:37.898Z,14.61
2022-11-10T04:24:10.765Z,14.63
2022-11-10T04:26:47.515Z,14.65
2022-11-10T04:29:21.384Z,14.66
2022-11-10T04:31:54.172Z,14.67
2022-11-10T04:34:27.401Z,14.71
2022-11-10T04:37:00.248Z,14.72
2022-11-10T04:39:33.076Z,14.73
2022-11-10T04:42:07.384Z,14.74
2022-11-10T04:44:40.328Z,14.70
2022-11-10T04:47:13.167Z,14.65
2022-11-10T04:49:46.014Z,14.58
2022-11-10T04:52:18.825Z,14.49
2022-11-10T04:54:51.640Z,14.39
2022-11-10T04:57:26.027Z,14.29
2022-11-10T04:59:58.806Z,14.16
2022-11-10T05:02:35.544Z,14.03
2022-11-10T05:05:11.804Z,13.88
2022-11-10T05:07:44.623Z,13.75
2022-11-10T05:10:17.659Z,13.62
2022-11-10T05:12:54.473Z,13.51
2022-11-10T05:15:27.470Z,13.37
2022-11-10T05:18:00.570Z,13.26
2022-11-10T05:20:33.536Z,13.13
2022-11-10T05:23:24.625Z,13.02
2022-11-10T05:25:57.784Z,12.90
2022-11-10T05:28:32.174Z,12.80
2022-11-10T05:31:05.254Z,12.71
2022-11-10T05:33:39.051Z,12.64
2022-11-10T05:36:12.113Z,12.55
2022-11-10T05:38:44.912Z,12.47
2022-11-10T05:41:17.718Z,12.39
2022-11-10T05:43:52.572Z,12.34
2022-11-10T05:46:25.898Z,12.25
2022-11-10T05:48:59.244Z,12.19
2022-11-10T05:51:32.194Z,12.12
2022-11-10T05:54:05.416Z,12.07
2022-11-10T05:56:38.553Z,12.04
2022-11-10T05:59:13.391Z,12.04
2022-11-10T06:01:51.165Z,12.04
2022-11-10T06:04:25.439Z,12.09
2022-11-10T06:06:58.746Z,12.10
2022-11-10T06:09:32.133Z,12.21
2022-11-10T06:12:20.816Z,12.32
2022-11-10T06:14:56.019Z,12.40
2022-11-10T06:17:29.317Z,12.46
2022-11-10T06:20:02.528Z,12.55
2022-11-10T06:22:35.812Z,12.65
2022-11-10T06:25:10.017Z,12.74
2022-11-10T06:27:46.553Z,12.82
2022-11-10T06:30:23.111Z,12.89
2022-11-10T06:32:56.934Z,12.95
2022-11-10T06:35:31.283Z,13.00
2022-11-10T06:38:07.600Z,13.02
2022-11-10T06:40:40.944Z,13.03
2022-11-10T06:43:14.638Z,13.04
2022-11-10T06:45:49.171Z,13.07
2022-11-10T06:48:22.285Z,13.07
2022-11-10T06:50:55.644Z,13.09
2022-11-10T06:53:28.957Z,13.14
2022-11-10T06:56:02.276Z,13.18
2022-11-10T06:58:35.237Z,13.23
2022-11-10T07:01:10.092Z,13.31
2022-11-10T07:04:05.170Z,13.36
2022-11-10T07:06:36.549Z,13.45
2022-11-10T07:09:09.664Z,13.51
2022-11-10T07:11:43.334Z,13.60
2022-11-10T07:14:16.725Z,13.66
2022-11-10T07:16:51.932Z,13.76
2022-11-10T07:19:25.236Z,13.84
2022-11-10T07:21:58.266Z,13.94
2022-11-10T07:24:31.418Z,14.00
2022-11-10T07:27:04.487Z,14.11
2022-11-10T07:29:38.087Z,14.19
2022-11-10T07:32:12.542Z,14.27
2022-11-10T07:34:45.549Z,14.36
2022-11-10T07:37:18.494Z,14.43
2022-11-10T07:39:51.466Z,14.50
2022-11-10T07:42:24.641Z,14.57
2022-11-10T07:44:57.514Z,14.61
2022-11-10T07:47:31.781Z,14.69
2022-11-10T07:50:05.176Z,14.73
2022-11-10T07:52:38.047Z,14.78
2022-11-10T07:55:11.095Z,14.83
2022-11-10T07:57:43.963Z,14.90
2022-11-10T08:00:18.436Z,14.94
2022-11-10T08:02:52.775Z,14.99
2022-11-10T08:05:25.725Z,15.04
2022-11-10T08:08:00.152Z,15.11
2022-11-10T08:10:34.084Z,15.17
2022-11-10T08:13:08.916Z,15.24
2022-11-10T08:15:42.466Z,15.30
2022-11-10T08:18:20.088Z,15.39
2022-11-10T08:20:53.460Z,15.46
2022-11-10T08:23:26.295Z,15.54
2022-11-10T08:25:59.774Z,15.60
2022-11-10T08:28:32.545Z,15.67
2022-11-10T08:31:06.354Z,15.74
2022-11-10T08:33:40.748Z,15.80
2022-11-10T08:36:14.353Z,15.84
2022-11-10T08:38:47.187Z,15.91
2022-11-10T08:41:20.070Z,15.95
2022-11-10T08:43:52.913Z,16.00
2022-11-10T08:46:25.752Z,16.04
2022-11-10T08:49:00.543Z,16.09
2022-11-10T08:51:38.741Z,16.13
2022-11-10T08:54:11.909Z,16.18
2022-11-10T08:56:44.709Z,16.27
2022-11-10T08:59:17.896Z,16.30
2022-11-10T09:01:50.724Z,16.36
2022-11-10T09:04:25.310Z,16.44
2022-11-10T09:06:58.350Z,16.50
2022-11-10T09:09:31.218Z,16.54
2022-11-10T09:12:04.268Z,16.57
2022-11-10T09:14:37.135Z,16.63
2022-11-10T09:17:10.004Z,16.68
2022-11-10T09:19:44.251Z,16.72
2022-11-10T09:22:17.145Z,16.74
2022-11-10T09:24:49.932Z,16.75
2022-11-10T09:27:23.092Z,16.75
2022-11-10T09:29:55.852Z,16.74
2022-11-10T09:32:28.954Z,16.73
2022-11-10T09:35:03.765Z,16.73
2022-11-10T09:37:40.126Z,16.74
2022-11-10T09:40:18.789Z,16.75
2022-11-10T09:42:56.660Z,16.77
2022-11-10T09:45:38.686Z,16.80
2022-11-10T09:48:18.887Z,16.83
2022-11-10T09:50:56.949Z,16.86
2022-11-10T09:53:38.059Z,16.92
2022-11-10T09:56:17.820Z,16.97
2022-11-10T09:58:51.366Z,17.00
2022-11-10T10:01:31.715Z,17.04
2022-11-10T10:04:21.824Z,17.06
2022-11-10T10:07:11.926Z,17.07
2022-11-10T10:09:54.319Z,17.08
2022-11-10T10:12:47.383Z,17.09
2022-11-10T10:15:30.979Z,17.10
2022-11-10T10:18:20.564Z,17.09
2022-11-10T10:21:07.229Z,17.13
2022-11-10T10:26:43.267Z,17.18
2022-11-10T10:29:21.735Z,17.23
2022-11-10T10:31:55.086Z,17.22
2022-11-10T10:34:30.490Z,17.20
2022-11-10T10:37:03.678Z,17.15
2022-11-10T10:39:42.989Z,17.14
2022-11-10T10:42:25.830Z,17.09
2022-11-10T10:45:15.844Z,17.09
2022-11-10T10:47:50.871Z,17.01
2022-11-10T10:50:30.250Z,17.01
2022-11-10T10:53:14.746Z,17.00
2022-11-10T10:56:00.165Z,16.97
2022-11-10T10:58:36.125Z,16.93
2022-11-10T11:01:25.508Z,16.91
2022-11-10T11:03:59.102Z,16.89
2022-11-10T11:06:33.125Z,16.88
2022-11-10T11:09:10.282Z,16.91
2022-11-10T11:11:46.217Z,16.94
2022-11-10T11:14:24.220Z,17.01
2022-11-10T11:16:58.366Z,17.08
2022-11-10T11:19:36.734Z,17.14
2022-11-10T11:22:43.795Z,17.19
2022-11-10T11:25:24.787Z,17.23
2022-11-10T11:28:11.304Z,17.29
2022-11-10T11:30:54.223Z,17.36
2022-11-10T11:33:38.452Z,17.39
2022-11-10T11:36:20.402Z,17.38
2022-11-10T11:39:06.410Z,17.39
2022-11-10T11:41:46.673Z,17.35
2022-11-10T11:44:34.440Z,17.35
2022-11-10T11:47:24.077Z,17.37
2022-11-10T11:50:14.715Z,17.37
2022-11-10T11:52:56.307Z,17.40
2022-11-10T11:55:40.091Z,17.43
2022-11-10T11:58:28.204Z,17.45
2022-11-10T12:01:15.610Z,17.45
2022-11-10T12:04:06.866Z,17.44
2022-11-10T12:06:56.091Z,17.40
2022-11-10T12:09:41.107Z,17.35
2022-11-10T12:12:43.838Z,17.28
2022-11-10T12:15:29.621Z,17.21
2022-11-10T12:18:14.496Z,17.14
2022-11-10T12:21:01.470Z,17.06
2022-11-10T12:23:46.681Z,17.02
2022-11-10T12:26:31.046Z,16.95
2022-11-10T12:29:10.638Z,16.90
2022-11-10T12:31:47.688Z,16.82
2022-11-10T12:34:31.933Z,16.74
2022-11-10T12:37:09.222Z,16.63
2022-11-10T12:39:50.972Z,16.48
2022-11-10T12:42:27.417Z,16.34
2022-11-10T12:45:03.089Z,16.20
2022-11-10T12:47:42.538Z,16.08
2022-11-10T12:50:31.716Z,15.98
2022-11-10T12:53:12.500Z,15.90
2022-11-10T12:55:56.395Z,15.87
2022-11-10T12:58:30.944Z,15.84
2022-11-10T13:01:06.757Z,15.87
2022-11-10T13:03:41.297Z,15.84
2022-11-10T13:06:28.541Z,15.81
2022-11-10T13:09:01.589Z,15.73
2022-11-10T13:11:37.296Z,15.68
2022-11-10T13:14:23.386Z,15.63
2022-11-10T13:16:56.624Z,15.56
2022-11-10T13:19:49.447Z,15.53
2022-11-10T13:22:39.358Z,15.47
2022-11-10T13:25:54.177Z,15.44
2022-11-10T13:29:02.554Z,15.45
2022-11-10T13:31:57.666Z,15.44
2022-11-10T13:34:35.690Z,15.47
2022-11-10T13:37:42.540Z,15.53
2022-11-10T13:40:36.629Z,15.59
2022-11-10T13:43:27.909Z,15.67
2022-11-10T13:46:06.332Z,15.72
2022-11-10T13:48:51.222Z,15.77
2022-11-10T13:51:41.100Z,15.78
2022-11-10T13:54:34.711Z,15.77
2022-11-10T13:57:21.030Z,15.74
2022-11-10T13:59:56.801Z,15.71
2022-11-10T14:02:57.327Z,15.69
2022-11-10T14:06:05.788Z,15.65
2022-11-10T14:08:49.755Z,15.64
2022-11-10T14:11:28.546Z,15.60
2022-11-10T14:14:11.621Z,15.59
2022-11-10T14:16:45.082Z,15.53
2022-11-10T14:19:26.825Z,15.53
2022-11-10T14:22:04.448Z,15.49
2022-11-10T14:24:40.479Z,15.48
2022-11-10T14:27:17.177Z,15.45
2022-11-10T14:30:05.428Z,15.46
2022-11-10T14:32:38.401Z,15.41
2022-11-10T14:35:21.265Z,15.38
2022-11-10T14:37:59.551Z,15.35
2022-11-10T14:40:32.441Z,15.33
2022-11-10T14:43:05.289Z,15.31
2022-11-10T14:45:41.205Z,15.28
2022-11-10T14:48:20.053Z,15.28
2022-11-10T14:50:53.979Z,15.23
2022-11-10T14:53:30.309Z,15.24
2022-11-10T14:56:05.820Z,15.20
2022-11-10T14:58:40.396Z,15.19
2022-11-10T15:01:27.278Z,15.18
2022-11-10T15:04:00.691Z,15.15
2022-11-10T15:06:34.690Z,15.11
2022-11-10T15:09:15.446Z,15.12
2022-11-10T15:11:51.265Z,15.08
2022-11-10T15:14:33.429Z,15.07
2022-11-10T15:17:10.561Z,15.04
2022-11-10T15:19:55.206Z,15.03
2022-11-10T15:22:30.739Z,15.00
2022-11-10T15:25:11.955Z,14.97
2022-11-10T15:27:57.773Z,14.92
2022-11-10T15:30:31.090Z,14.86
2022-11-10T15:33:11.879Z,14.83
2022-11-10T15:35:44.739Z,14.77
2022-11-10T15:38:30.555Z,14.72
2022-11-10T15:41:12.974Z,14.66
2022-11-10T15:43:45.772Z,14.57
2022-11-10T15:46:22.098Z,14.53
2022-11-10T15:48:56.357Z,14.46
2022-11-10T15:51:29.446Z,14.38
2022-11-10T15:54:03.565Z,14.29
2022-11-10T15:56:36.681Z,14.22
2022-11-10T15:59:11.225Z,14.17
2022-11-10T16:01:44.109Z,14.07
2022-11-10T16:04:18.442Z,14.01
2022-11-10T16:06:51.333Z,13.91
2022-11-10T16:09:24.172Z,13.84
2022-11-10T16:11:57.155Z,13.74
2022-11-10T16:14:30.623Z,13.67
2022-11-10T16:17:03.521Z,13.57
2022-11-10T16:19:37.730Z,13.50
2022-11-10T16:22:11.992Z,13.42
2022-11-10T16:24:45.290Z,13.33
2022-11-10T16:27:18.617Z,13.25
2022-11-10T16:29:51.472Z,13.17
2022-11-10T16:32:24.539Z,13.09
2022-11-10T16:34:59.015Z,13.00
2022-11-10T16:37:34.927Z,12.93
2022-11-10T16:40:14.604Z,12.86
2022-11-10T16:42:47.885Z,12.74
2022-11-10T16:45:23.435Z,12.65
2022-11-10T16:47:56.563Z,12.56
2022-11-10T16:50:36.062Z,12.50
2022-11-10T16:53:17.163Z,12.41
2022-11-10T16:55:49.994Z,12.32
2022-11-10T16:58:23.003Z,12.25
2022-11-10T17:00:59.790Z,12.19
2022-11-10T17:03:35.410Z,12.12
2022-11-10T17:06:13.546Z,12.07
2022-11-10T17:08:48.229Z,11.99
2022-11-10T17:11:21.129Z,11.92
2022-11-10T17:13:53.979Z,11.86
2022-11-10T17:16:29.995Z,11.82
2022-11-10T17:19:04.261Z,11.73
2022-11-10T17:21:39.906Z,11.70
2022-11-10T17:24:15.334Z,11.63
2022-11-10T17:26:48.767Z,11.56
2022-11-10T17:29:22.475Z,11.50
2022-11-10T17:31:55.854Z,11.44
2022-11-10T17:34:28.748Z,11.38
2022-11-10T17:37:03.050Z,11.34
2022-11-10T17:39:35.948Z,11.28
2022-11-10T17:42:13.086Z,11.23
2022-11-10T17:44:45.936Z,11.18
2022-11-10T17:47:18.812Z,11.12
2022-11-10T17:49:51.651Z,11.07
2022-11-10T17:52:25.892Z,11.03
2022-11-10T17:54:58.911Z,10.98
2022-11-10T17:57:32.003Z,10.93
2022-11-10T18:00:06.523Z,10.91
2022-11-10T18:02:39.405Z,10.85
2022-11-10T18:05:13.774Z,10.82
2022-11-10T18:07:50.948Z,10.81
2022-11-10T18:10:23.913Z,10.75
2022-11-10T18:12:56.702Z,10.71
2022-11-10T18:15:29.534Z,10.67
2022-11-10T18:18:02.342Z,10.67
2022-11-10T18:20:35.159Z,10.63
2022-11-10T18:23:12.339Z,10.59
2022-11-10T18:25:45.251Z,10.55
2022-11-10T18:28:18.181Z,10.52
2022-11-10T18:30:50.996Z,10.48
2022-11-10T18:33:24.186Z,10.44
2022-11-10T18:35:59.629Z,10.42
2022-11-10T18:38:33.894Z,10.38
2022-11-10T18:41:22.067Z,10.34
2022-11-10T18:43:57.383Z,10.30
2022-11-10T18:46:30.215Z,10.26
2022-11-10T18:49:03.359Z,10.23
2022-11-10T18:51:37.144Z,10.18
2022-11-10T18:54:11.550Z,10.14
2022-11-10T18:56:44.403Z,10.10
2022-11-10T18:59:17.434Z,10.08
2022-11-10T19:01:51.045Z,10.05
2022-11-10T19:04:24.121Z,10.02
2022-11-10T19:06:57.068Z,10.00
2022-11-10T19:09:31.503Z,9.99
2022-11-10T19:12:04.605Z,9.97
2022-11-10T19:14:37.403Z,9.96
2022-11-10T19:17:10.347Z,9.96
2022-11-10T19:19:43.106Z,9.93
2022-11-10T19:22:15.967Z,9.95
2022-11-10T19:25:08.503Z,9.95
2022-11-10T19:27:41.564Z,9.92
2022-11-10T19:30:15.165Z,9.93
2022-11-10T19:32:48.246Z,9.90
2022-11-10T19:35:21.022Z,9.89
2022-11-10T19:37:54.210Z,9.88
2022-11-10T19:40:28.492Z,9.86
2022-11-10T19:43:01.311Z,9.83
2022-11-10T19:45:35.973Z,9.81
2022-11-10T19:48:08.824Z,9.78
2022-11-10T19:50:46.558Z,9.77
2022-11-10T19:53:22.377Z,9.74
2022-11-10T19:56:02.071Z,9.75
2022-11-10T19:58:38.073Z,9.73
2022-11-10T20:01:11.792Z,9.71
2022-11-10T20:03:44.949Z,9.69
2022-11-10T20:06:20.071Z,9.66
2022-11-10T20:08:53.345Z,9.66
2022-11-10T20:11:28.135Z,9.64
2022-11-10T20:14:01.536Z,9.63
2022-11-10T20:16:34.336Z,9.60
2022-11-10T20:19:07.183Z,9.60
2022-11-10T20:21:39.978Z,9.58
2022-11-10T20:24:12.928Z,9.54
2022-11-10T20:26:47.274Z,9.55
2022-11-10T20:29:20.047Z,9.52
2022-11-10T20:31:52.863Z,9.51
2022-11-10T20:34:26.162Z,9.48
2022-11-10T20:36:59.280Z,9.48
2022-11-10T20:39:32.241Z,9.45
2022-11-10T20:42:06.469Z,9.43
2022-11-10T20:44:39.406Z,9.39
2022-11-10T20:47:12.306Z,9.38
2022-11-10T20:49:45.202Z,9.35
2022-11-10T20:52:18.550Z,9.32
2022-11-10T20:54:51.567Z,9.34
2022-11-10T20:57:25.780Z,9.33
2022-11-10T20:59:58.771Z,9.32
2022-11-10T21:02:31.660Z,9.35
2022-11-10T21:05:04.927Z,9.39
2022-11-10T21:07:38.002Z,9.42
2022-11-10T21:10:11.029Z,9.43
2022-11-10T21:12:51.219Z,9.50
2022-11-10T21:15:24.618Z,9.55
2022-11-10T21:17:57.479Z,9.61
2022-11-10T21:20:30.334Z,9.70
2022-11-10T21:23:03.824Z,9.74
2022-11-10T21:25:36.961Z,9.83
2022-11-10T21:28:11.279Z,9.94
2022-11-10T21:30:44.369Z,10.00
2022-11-10T21:33:17.405Z,10.07
2022-11-10T21:35:50.549Z,10.13
2022-11-10T21:38:23.453Z,10.20
2022-11-10T21:40:58.599Z,10.28
2022-11-10T21:43:32.926Z,10.33
2022-11-10T21:46:06.840Z,10.38
2022-11-10T21:48:39.746Z,10.42
2022-11-10T21:51:14.388Z,10.44
2022-11-10T21:53:47.554Z,10.48
2022-11-10T21:56:20.422Z,10.51
2022-11-10T21:58:54.612Z,10.56
2022-11-10T22:01:27.630Z,10.59
2022-11-10T22:04:00.489Z,10.62
2022-11-10T22:06:47.273Z,10.63
2022-11-10T22:09:40.256Z,10.68
2022-11-10T22:12:32.161Z,10.73
2022-11-10T22:15:25.707Z,10.75
2022-11-10T22:18:16.197Z,10.77
2022-11-10T22:20:49.128Z,10.81
2022-11-10T22:23:42.407Z,10.83
2022-11-10T22:26:15.536Z,10.88
2022-11-10T22:28:49.287Z,10.91
2022-11-10T22:31:23.470Z,10.95
2022-11-10T22:33:56.295Z,10.98
2022-11-10T22:36:29.247Z,11.04
2022-11-10T22:39:03.827Z,11.07
2022-11-10T22:41:54.639Z,11.11
2022-11-10T22:44:27.602Z,11.15
2022-11-10T22:47:02.062Z,11.21
2022-11-10T22:49:34.915Z,11.22
2022-11-10T22:52:07.737Z,11.25
2022-11-10T22:54:40.561Z,11.27
2022-11-10T22:57:13.337Z,11.30
2022-11-10T22:59:46.193Z,11.33
2022-11-10T23:02:20.331Z,11.33
2022-11-10T23:04:53.143Z,11.33
2022-11-10T23:07:25.930Z,11.34
2022-11-10T23:09:58.734Z,11.37
2022-11-10T23:12:31.737Z,11.35
2022-11-10T23:15:04.933Z,11.37
2022-11-10T23:17:39.140Z,11.39
2022-11-10T23:20:12.527Z,11.38
2022-11-10T23:22:45.405Z,11.39
2022-11-10T23:25:18.266Z,11.41
2022-11-10T23:27:51.043Z,11.41
2022-11-10T23:30:24.313Z,11.41
2022-11-10T23:32:58.594Z,11.44
2022-11-10T23:35:33.241Z,11.46
2022-11-10T23:38:06.216Z,11.44
2022-11-10T23:40:39.333Z,11.46
2022-11-10T23:43:12.245Z,11.45
2022-11-10T23:46:06.027Z,11.44
2022-11-10T23:48:40.661Z,11.46
2022-11-10T23:51:15.441Z,11.45
2022-11-10T23:53:48.302Z,11.43
2022-11-10T23:56:21.250Z,11.45
2022-11-10T23:58:54.085Z,11.47
